Time,TemperatureF,DewpointF,PressureIn,WindDirection,WindDirectionDegrees,WindSpeedMPH,WindSpeedGustMPH,Humidity,HourlyPrecipIn,Conditions,Clouds,dailyrainin,SolarRadiationWatts/m^2,SoftwareType,DateUTC
2013-06-01 00:12:00,78.0,73.0,-100.00,NE,44,7.0,13.0,85,0.00,,,0.49,1.000000,,2013-06-01 05:12:00,
2013-06-01 00:22:00,78.0,73.0,-100.00,NE,44,7.0,13.0,85,0.00,,,0.49,1.000000,,2013-06-01 05:22:00,
2013-06-01 00:32:00,78.0,73.0,-100.00,NE,44,7.0,13.0,85,0.00,,,0.49,1.000000,,2013-06-01 05:32:00,
2013-06-01 00:42:00,78.0,73.0,-100.00,NE,44,7.0,13.0,85,0.00,,,0.49,1.000000,,2013-06-01 05:42:00,
2013-06-01 00:52:00,78.0,73.0,-100.00,NE,44,7.0,13.0,85,0.00,,,0.49,1.000000,,2013-06-01 05:52:00,
2013-06-01 01:12:00,78.0,73.0,-100.00,NE,51,7.0,14.0,84,0.00,,,0.49,1.000000,,2013-06-01 06:12:00,
2013-06-01 01:22:00,78.0,73.0,-100.00,NE,51,7.0,14.0,84,0.00,,,0.49,1.000000,,2013-06-01 06:22:00,
2013-06-01 01:32:00,78.0,73.0,-100.00,NE,51,7.0,14.0,84,0.00,,,0.49,1.000000,,2013-06-01 06:32:00,
2013-06-01 01:42:00,78.0,73.0,-100.00,NE,51,7.0,14.0,84,0.00,,,0.49,1.000000,,2013-06-01 06:42:00,
2013-06-01 01:52:00,78.0,73.0,-100.00,NE,51,7.0,14.0,84,0.00,,,0.49,1.000000,,2013-06-01 06:52:00,
2013-06-01 02:11:00,77.0,72.0,-100.00,NE,56,8.0,16.0,85,0.00,,,0.49,1.000000,,2013-06-01 07:11:00,
2013-06-01 02:22:00,77.0,72.0,-100.00,NE,56,8.0,16.0,85,0.00,,,0.49,1.000000,,2013-06-01 07:22:00,
2013-06-01 02:32:00,77.0,72.0,-100.00,NE,56,8.0,16.0,85,0.00,,,0.49,1.000000,,2013-06-01 07:32:00,
2013-06-01 02:42:00,77.0,72.0,-100.00,NE,56,8.0,16.0,85,0.00,,,0.49,1.000000,,2013-06-01 07:42:00,
2013-06-01 02:52:00,77.0,72.0,-100.00,NE,56,8.0,16.0,85,0.00,,,0.49,1.000000,,2013-06-01 07:52:00,
2013-06-01 03:11:00,77.0,73.0,-100.00,ENE,58,7.0,15.0,87,0.00,,,0.41,1.000000,,2013-06-01 08:11:00,
2013-06-01 03:21:00,77.0,73.0,-100.00,ENE,58,7.0,15.0,87,0.00,,,0.41,1.000000,,2013-06-01 08:21:00,
2013-06-01 03:32:00,77.0,73.0,-100.00,ENE,58,7.0,15.0,87,0.00,,,0.41,1.000000,,2013-06-01 08:32:00,
2013-06-01 03:42:00,77.0,73.0,-100.00,ENE,58,7.0,15.0,87,0.00,,,0.41,1.000000,,2013-06-01 08:42:00,
2013-06-01 03:52:00,77.0,73.0,-100.00,ENE,58,7.0,15.0,87,0.00,,,0.41,1.000000,,2013-06-01 08:52:00,
2013-06-01 03:53:00,69.0,62.0,-100.00,SSW,213,15.0,25.0,79,0.00,,,0.18,1.000000,,2013-06-01 08:53:00,
2013-06-01 04:12:00,69.0,62.0,-100.00,SSW,213,15.0,25.0,79,0.00,,,0.18,1.000000,,2013-06-01 09:12:00,
2013-06-01 04:21:00,69.0,62.0,-100.00,SSW,213,15.0,25.0,79,0.00,,,0.18,1.000000,,2013-06-01 09:21:00,
2013-06-01 04:33:00,69.0,62.0,-100.00,SSW,213,15.0,25.0,79,0.00,,,0.18,1.000000,,2013-06-01 09:33:00,
2013-06-01 04:42:00,69.0,62.0,-100.00,SSW,213,15.0,25.0,79,0.00,,,0.18,1.000000,,2013-06-01 09:42:00,
2013-06-01 05:13:00,64.0,63.0,-100.00,SW,224,3.0,21.0,97,0.85,,,0.92,1.000000,,2013-06-01 10:13:00,
2013-06-01 05:22:00,64.0,63.0,-100.00,SW,224,3.0,21.0,97,0.85,,,0.92,1.000000,,2013-06-01 10:22:00,
2013-06-01 05:33:00,64.0,63.0,-100.00,SW,224,3.0,21.0,97,0.85,,,0.92,1.000000,,2013-06-01 10:33:00,
2013-06-01 05:42:00,64.0,63.0,-100.00,SW,224,3.0,21.0,97,0.85,,,0.92,1.000000,,2013-06-01 10:42:00,
2013-06-01 05:52:00,64.0,63.0,-100.00,SW,224,3.0,21.0,97,0.85,,,0.92,1.000000,,2013-06-01 10:52:00,
2013-06-01 06:11:00,64.0,64.0,-100.00,NNW,344,6.0,11.0,99,0.42,,,1.34,1.000000,,2013-06-01 11:11:00,
2013-06-01 06:21:00,64.0,64.0,-100.00,NNW,344,6.0,11.0,99,0.42,,,1.34,1.000000,,2013-06-01 11:21:00,
2013-06-01 06:32:00,64.0,64.0,-100.00,NNW,344,6.0,11.0,99,0.42,,,1.34,1.000000,,2013-06-01 11:32:00,
2013-06-01 06:42:00,64.0,64.0,-100.00,NNW,344,6.0,11.0,99,0.42,,,1.34,1.000000,,2013-06-01 11:42:00,
2013-06-01 06:52:00,64.0,64.0,-100.00,NNW,344,6.0,11.0,99,0.42,,,1.34,1.000000,,2013-06-01 11:52:00,
2013-06-01 07:12:00,64.0,64.0,-100.00,NW,323,3.0,13.0,99,0.71,,,2.05,2.000000,,2013-06-01 12:12:00,
2013-06-01 07:21:00,64.0,64.0,-100.00,NW,323,3.0,13.0,99,0.71,,,2.05,2.000000,,2013-06-01 12:21:00,
2013-06-01 07:32:00,64.0,64.0,-100.00,NW,323,3.0,13.0,99,0.71,,,2.05,2.000000,,2013-06-01 12:32:00,
2013-06-01 07:42:00,64.0,64.0,-100.00,NW,323,3.0,13.0,99,0.71,,,2.05,2.000000,,2013-06-01 12:42:00,
2013-06-01 07:52:00,64.0,64.0,-100.00,NW,323,3.0,13.0,99,0.71,,,2.05,2.000000,,2013-06-01 12:52:00,
2013-06-01 08:11:00,64.0,64.0,-100.00,NW,320,3.0,10.0,99,0.20,,,2.25,9.000000,,2013-06-01 13:11:00,
2013-06-01 08:22:00,64.0,64.0,-100.00,NW,320,3.0,10.0,99,0.20,,,2.25,9.000000,,2013-06-01 13:22:00,
2013-06-01 08:32:00,64.0,64.0,-100.00,NW,320,3.0,10.0,99,0.20,,,2.25,9.000000,,2013-06-01 13:32:00,
2013-06-01 08:42:00,64.0,64.0,-100.00,NW,320,3.0,10.0,99,0.20,,,2.25,9.000000,,2013-06-01 13:42:00,
2013-06-01 08:52:00,64.0,64.0,-100.00,NW,320,3.0,10.0,99,0.20,,,2.25,9.000000,,2013-06-01 13:52:00,
2013-06-01 09:11:00,65.0,65.0,-100.00,NNE,19,3.0,8.0,99,0.15,,,2.40,37.000000,,2013-06-01 14:11:00,
2013-06-01 09:21:00,65.0,65.0,-100.00,NNE,19,3.0,8.0,99,0.15,,,2.40,37.000000,,2013-06-01 14:21:00,
2013-06-01 09:32:00,65.0,65.0,-100.00,NNE,19,3.0,8.0,99,0.15,,,2.40,37.000000,,2013-06-01 14:32:00,
2013-06-01 09:42:00,65.0,65.0,-100.00,NNE,19,3.0,8.0,99,0.15,,,2.40,37.000000,,2013-06-01 14:42:00,
2013-06-01 09:52:00,65.0,65.0,-100.00,NNE,19,3.0,8.0,99,0.15,,,2.40,37.000000,,2013-06-01 14:52:00,
2013-06-01 09:53:00,65.0,65.0,-100.00,ENE,77,3.0,5.0,100,0.27,,,2.67,14.000000,,2013-06-01 14:53:00,
2013-06-01 10:11:00,65.0,65.0,-100.00,ENE,77,3.0,5.0,100,0.27,,,2.67,14.000000,,2013-06-01 15:11:00,
2013-06-01 10:21:00,65.0,65.0,-100.00,ENE,77,3.0,5.0,100,0.27,,,2.67,14.000000,,2013-06-01 15:21:00,
2013-06-01 10:33:00,65.0,65.0,-100.00,ENE,77,3.0,5.0,100,0.27,,,2.67,14.000000,,2013-06-01 15:33:00,
2013-06-01 10:43:00,65.0,65.0,-100.00,ENE,77,3.0,5.0,100,0.27,,,2.67,14.000000,,2013-06-01 15:43:00,
2013-06-01 11:12:00,65.0,65.0,-100.00,North,2,13.0,22.0,100,0.20,,,2.85,25.000000,,2013-06-01 16:12:00,
2013-06-01 11:23:00,65.0,65.0,-100.00,North,2,13.0,22.0,100,0.20,,,2.85,25.000000,,2013-06-01 16:23:00,
2013-06-01 11:33:00,65.0,65.0,-100.00,North,2,13.0,22.0,100,0.20,,,2.85,25.000000,,2013-06-01 16:33:00,
2013-06-01 11:42:00,65.0,65.0,-100.00,North,2,13.0,22.0,100,0.20,,,2.85,25.000000,,2013-06-01 16:42:00,
2013-06-01 11:52:00,65.0,65.0,-100.00,North,2,13.0,22.0,100,0.20,,,2.85,25.000000,,2013-06-01 16:52:00,
2013-06-01 12:12:00,65.0,64.0,-100.00,NNE,21,13.0,24.0,98,0.07,,,2.89,64.000000,,2013-06-01 17:12:00,
2013-06-01 12:22:00,65.0,64.0,-100.00,NNE,21,13.0,24.0,98,0.07,,,2.89,64.000000,,2013-06-01 17:22:00,
2013-06-01 12:32:00,65.0,64.0,-100.00,NNE,21,13.0,24.0,98,0.07,,,2.89,64.000000,,2013-06-01 17:32:00,
2013-06-01 12:42:00,65.0,64.0,-100.00,NNE,21,13.0,24.0,98,0.07,,,2.89,64.000000,,2013-06-01 17:42:00,
2013-06-01 12:52:00,65.0,64.0,-100.00,NNE,21,13.0,24.0,98,0.07,,,2.89,64.000000,,2013-06-01 17:52:00,
2013-06-01 13:12:00,66.0,65.0,-100.00,East,82,6.0,22.0,97,0.02,,,2.90,91.000000,,2013-06-01 18:12:00,
2013-06-01 13:22:00,66.0,65.0,-100.00,East,82,6.0,22.0,97,0.02,,,2.90,91.000000,,2013-06-01 18:22:00,
2013-06-01 13:32:00,66.0,65.0,-100.00,East,82,6.0,22.0,97,0.02,,,2.90,91.000000,,2013-06-01 18:32:00,
2013-06-01 13:42:00,66.0,65.0,-100.00,East,82,6.0,22.0,97,0.02,,,2.90,91.000000,,2013-06-01 18:42:00,
2013-06-01 13:51:00,66.0,65.0,-100.00,East,82,6.0,22.0,97,0.02,,,2.90,91.000000,,2013-06-01 18:51:00,
2013-06-01 14:11:00,67.0,66.0,-100.00,SE,131,5.0,10.0,95,0.00,,,2.90,140.000000,,2013-06-01 19:11:00,
2013-06-01 14:21:00,67.0,66.0,-100.00,SE,131,5.0,10.0,95,0.00,,,2.90,140.000000,,2013-06-01 19:21:00,
2013-06-01 14:32:00,67.0,66.0,-100.00,SE,131,5.0,10.0,95,0.00,,,2.90,140.000000,,2013-06-01 19:32:00,
2013-06-01 14:42:00,67.0,66.0,-100.00,SE,131,5.0,10.0,95,0.00,,,2.90,140.000000,,2013-06-01 19:42:00,
2013-06-01 14:52:00,67.0,66.0,-100.00,SE,131,5.0,10.0,95,0.00,,,2.90,140.000000,,2013-06-01 19:52:00,
2013-06-01 15:12:00,69.0,66.0,-100.00,East,88,6.0,9.0,90,0.00,,,2.90,262.000000,,2013-06-01 20:12:00,
2013-06-01 15:21:00,69.0,66.0,-100.00,East,88,6.0,9.0,90,0.00,,,2.90,262.000000,,2013-06-01 20:21:00,
2013-06-01 15:32:00,69.0,66.0,-100.00,East,88,6.0,9.0,90,0.00,,,2.90,262.000000,,2013-06-01 20:32:00,
2013-06-01 15:42:00,69.0,66.0,-100.00,East,88,6.0,9.0,90,0.00,,,2.90,262.000000,,2013-06-01 20:42:00,
2013-06-01 15:52:00,69.0,66.0,-100.00,East,88,6.0,9.0,90,0.00,,,2.90,262.000000,,2013-06-01 20:52:00,
2013-06-01 15:53:00,71.0,67.0,-100.00,East,84,7.0,12.0,87,0.00,,,2.89,335.000000,,2013-06-01 20:53:00,
2013-06-01 16:11:00,71.0,67.0,-100.00,East,84,7.0,12.0,87,0.00,,,2.89,335.000000,,2013-06-01 21:11:00,
2013-06-01 16:21:00,71.0,67.0,-100.00,East,84,7.0,12.0,87,0.00,,,2.89,335.000000,,2013-06-01 21:21:00,
2013-06-01 16:33:00,71.0,67.0,-100.00,East,84,7.0,12.0,87,0.00,,,2.89,335.000000,,2013-06-01 21:33:00,
2013-06-01 16:42:00,71.0,67.0,-100.00,East,84,7.0,12.0,87,0.00,,,2.89,335.000000,,2013-06-01 21:42:00,
2013-06-01 16:53:00,73.0,68.0,-100.00,SE,132,7.0,15.0,83,0.00,,,2.89,434.000000,,2013-06-01 21:53:00,
2013-06-01 17:12:00,73.0,68.0,-100.00,SE,132,7.0,15.0,83,0.00,,,2.89,434.000000,,2013-06-01 22:12:00,
2013-06-01 17:23:00,73.0,68.0,-100.00,SE,132,7.0,15.0,83,0.00,,,2.89,434.000000,,2013-06-01 22:23:00,
2013-06-01 17:33:00,73.0,68.0,-100.00,SE,132,7.0,15.0,83,0.00,,,2.89,434.000000,,2013-06-01 22:33:00,
2013-06-01 17:42:00,73.0,68.0,-100.00,SE,132,7.0,15.0,83,0.00,,,2.89,434.000000,,2013-06-01 22:42:00,
2013-06-01 18:11:00,74.0,66.0,-100.00,ESE,115,8.0,17.0,76,0.00,,,2.89,480.000000,,2013-06-01 23:11:00,
2013-06-01 18:22:00,74.0,66.0,-100.00,ESE,115,8.0,17.0,76,0.00,,,2.89,480.000000,,2013-06-01 23:22:00,
2013-06-01 18:32:00,74.0,66.0,-100.00,ESE,115,8.0,17.0,76,0.00,,,2.89,480.000000,,2013-06-01 23:32:00,
2013-06-01 18:42:00,74.0,66.0,-100.00,ESE,115,8.0,17.0,76,0.00,,,2.89,480.000000,,2013-06-01 23:42:00,
2013-06-01 18:52:00,74.0,66.0,-100.00,ESE,115,8.0,17.0,76,0.00,,,2.89,480.000000,,2013-06-01 23:52:00,
2013-06-01 19:11:00,73.0,66.0,-100.00,SE,125,7.0,14.0,79,0.00,,,2.89,239.000000,,2013-06-02 00:11:00,
2013-06-01 19:21:00,73.0,66.0,-100.00,SE,125,7.0,14.0,79,0.00,,,2.89,239.000000,,2013-06-02 00:21:00,
2013-06-01 19:32:00,73.0,66.0,-100.00,SE,125,7.0,14.0,79,0.00,,,2.89,239.000000,,2013-06-02 00:32:00,
2013-06-01 19:42:00,73.0,66.0,-100.00,SE,125,7.0,14.0,79,0.00,,,2.89,239.000000,,2013-06-02 00:42:00,
2013-06-01 19:51:00,73.0,66.0,-100.00,SE,125,7.0,14.0,79,0.00,,,2.89,239.000000,,2013-06-02 00:51:00,
2013-06-01 20:11:00,70.0,66.0,-100.00,East,81,4.0,9.0,86,0.00,,,2.89,68.000000,,2013-06-02 01:11:00,
2013-06-01 20:21:00,70.0,66.0,-100.00,East,81,4.0,9.0,86,0.00,,,2.89,68.000000,,2013-06-02 01:21:00,
2013-06-01 20:32:00,70.0,66.0,-100.00,East,81,4.0,9.0,86,0.00,,,2.89,68.000000,,2013-06-02 01:32:00,
2013-06-01 20:42:00,70.0,66.0,-100.00,East,81,4.0,9.0,86,0.00,,,2.89,68.000000,,2013-06-02 01:42:00,
2013-06-01 20:52:00,70.0,66.0,-100.00,East,81,4.0,9.0,86,0.00,,,2.89,68.000000,,2013-06-02 01:52:00,
2013-06-01 21:12:00,68.0,66.0,-100.00,ESE,104,4.0,8.0,93,0.00,,,2.89,12.000000,,2013-06-02 02:12:00,
2013-06-01 21:21:00,68.0,66.0,-100.00,ESE,104,4.0,8.0,93,0.00,,,2.89,12.000000,,2013-06-02 02:21:00,
2013-06-01 21:32:00,68.0,66.0,-100.00,ESE,104,4.0,8.0,93,0.00,,,2.89,12.000000,,2013-06-02 02:32:00,
2013-06-01 21:41:00,68.0,66.0,-100.00,ESE,104,4.0,8.0,93,0.00,,,2.89,12.000000,,2013-06-02 02:41:00,
2013-06-01 21:51:00,68.0,66.0,-100.00,ESE,104,4.0,8.0,93,0.00,,,2.89,12.000000,,2013-06-02 02:51:00,
2013-06-01 22:11:00,67.0,66.0,-100.00,ESE,120,4.0,7.0,95,0.00,,,2.89,1.000000,,2013-06-02 03:11:00,
2013-06-01 22:21:00,67.0,66.0,-100.00,ESE,120,4.0,7.0,95,0.00,,,2.89,1.000000,,2013-06-02 03:21:00,
2013-06-01 22:33:00,67.0,66.0,-100.00,ESE,120,4.0,7.0,95,0.00,,,2.89,1.000000,,2013-06-02 03:33:00,
2013-06-01 22:43:00,67.0,66.0,-100.00,ESE,120,4.0,7.0,95,0.00,,,2.89,1.000000,,2013-06-02 03:43:00,
2013-06-01 22:52:00,67.0,66.0,-100.00,ESE,120,4.0,7.0,95,0.00,,,2.89,1.000000,,2013-06-02 03:52:00,
2013-06-01 23:13:00,66.0,65.0,-100.00,ESE,121,3.0,6.0,96,0.00,,,2.89,1.000000,,2013-06-02 04:13:00,
2013-06-01 23:23:00,66.0,65.0,-100.00,ESE,121,3.0,6.0,96,0.00,,,2.89,1.000000,,2013-06-02 04:23:00,
2013-06-01 23:33:00,66.0,65.0,-100.00,ESE,121,3.0,6.0,96,0.00,,,2.89,1.000000,,2013-06-02 04:33:00,
2013-06-01 23:42:00,66.0,65.0,-100.00,ESE,121,3.0,6.0,96,0.00,,,2.89,1.000000,,2013-06-02 04:42:00,
2013-06-01 23:52:00,66.0,65.0,-100.00,ESE,121,3.0,6.0,96,0.00,,,2.89,1.000000,,2013-06-02 04:52:00,